createdAt,value
2023-03-07T00:00:40.289Z,87.22
2023-03-07T00:01:40.283Z,87.74
2023-03-07T00:02:40.365Z,87.05
2023-03-07T00:03:40.316Z,87.68
2023-03-07T00:04:40.264Z,87.99
2023-03-07T00:05:40.228Z,87.57
2023-03-07T00:06:40.247Z,87.43
2023-03-07T00:07:40.268Z,87.95
2023-03-07T00:08:40.201Z,87.43
2023-03-07T00:09:40.182Z,87.63
2023-03-07T00:10:40.177Z,87.63
2023-03-07T00:11:40.166Z,87.68
2023-03-07T00:12:40.188Z,88.09
2023-03-07T00:13:40.140Z,88.68
2023-03-07T00:14:40.153Z,88.62
2023-03-07T00:15:40.122Z,88.51
2023-03-07T00:16:40.117Z,88.72
2023-03-07T00:17:40.109Z,88.41
2023-03-07T00:18:40.088Z,88.37
2023-03-07T00:19:40.097Z,88.16
2023-03-07T00:20:40.131Z,88.89
2023-03-07T00:21:40.057Z,88.47
2023-03-07T00:22:40.129Z,88.57
2023-03-07T00:23:40.102Z,89.20
2023-03-07T00:24:40.044Z,88.06
2023-03-07T00:25:40.014Z,88.37
2023-03-07T00:26:40.008Z,88.37
2023-03-07T00:27:40.059Z,88.89
2023-03-07T00:28:39.992Z,88.68
2023-03-07T00:29:39.974Z,88.78
2023-03-07T00:30:39.974Z,88.85
2023-03-07T00:31:40.047Z,89.10
2023-03-07T00:32:40.078Z,89.10
2023-03-07T00:33:39.930Z,88.78
2023-03-07T00:34:39.937Z,88.89
2023-03-07T00:35:39.934Z,88.89
2023-03-07T00:36:39.900Z,88.37
2023-03-07T00:37:39.945Z,88.57
2023-03-07T00:38:40.041Z,88.99
2023-03-07T00:39:39.874Z,88.68
2023-03-07T00:40:39.856Z,88.68
2023-03-07T00:41:39.847Z,88.68
2023-03-07T00:42:39.867Z,88.64
2023-03-07T00:43:39.820Z,88.85
2023-03-07T00:44:39.822Z,88.68
2023-03-07T00:45:39.822Z,88.64
2023-03-07T00:46:39.803Z,88.68
2023-03-07T00:47:39.797Z,88.37
2023-03-07T00:48:39.795Z,89.20
2023-03-07T00:49:39.766Z,88.47
2023-03-07T00:50:39.755Z,88.78
2023-03-07T00:51:39.744Z,88.78
2023-03-07T00:52:39.749Z,88.68
2023-03-07T00:53:39.732Z,88.78
2023-03-07T00:54:39.729Z,88.89
2023-03-07T00:55:39.703Z,88.62
2023-03-07T00:56:39.691Z,88.82
2023-03-07T00:57:39.691Z,88.68
2023-03-07T00:58:39.672Z,88.82
2023-03-07T00:59:39.661Z,88.93
2023-03-07T01:00:39.697Z,88.62
2023-03-07T01:01:39.654Z,88.72
2023-03-07T01:02:39.659Z,89.14
2023-03-07T01:03:39.640Z,88.72
2023-03-07T01:04:39.613Z,89.24
2023-03-07T01:05:39.594Z,88.93
2023-03-07T01:06:39.581Z,89.14
2023-03-07T01:07:39.587Z,88.93
2023-03-07T01:08:39.567Z,88.93
2023-03-07T01:09:39.552Z,88.97
2023-03-07T01:10:39.591Z,89.28
2023-03-07T01:11:39.529Z,89.49
2023-03-07T01:12:39.545Z,89.49
2023-03-07T01:13:39.514Z,90.12
2023-03-07T01:14:39.501Z,89.91
2023-03-07T01:15:39.483Z,90.78
2023-03-07T01:16:39.577Z,90.53
2023-03-07T01:17:39.511Z,90.26
2023-03-07T01:18:39.455Z,90.43
2023-03-07T01:19:39.500Z,90.43
2023-03-07T01:20:39.440Z,90.75
2023-03-07T01:21:39.424Z,90.53
2023-03-07T01:22:39.433Z,89.81
2023-03-07T01:23:39.407Z,90.47
2023-03-07T01:24:39.404Z,91.20
2023-03-07T01:25:39.401Z,90.89
2023-03-07T01:26:39.401Z,91.46
2023-03-07T01:27:39.359Z,91.56
2023-03-07T01:28:39.354Z,91.83
2023-03-07T01:29:39.366Z,92.14
2023-03-07T01:30:39.358Z,92.04
2023-03-07T01:31:39.359Z,92.29
2023-03-07T01:32:39.336Z,91.94
2023-03-07T01:33:39.300Z,91.94
2023-03-07T01:34:39.291Z,91.87
2023-03-07T01:35:39.325Z,92.19
2023-03-07T01:36:39.371Z,92.40
2023-03-07T01:37:39.320Z,92.50
2023-03-07T01:38:39.258Z,92.60
2023-03-07T01:39:39.233Z,92.60
2023-03-07T01:40:39.249Z,92.92
2023-03-07T01:41:39.224Z,92.77
2023-03-07T01:42:39.239Z,92.77
2023-03-07T01:43:39.193Z,92.41
2023-03-07T01:44:39.190Z,92.77
2023-03-07T01:45:39.193Z,92.77
2023-03-07T01:46:39.159Z,92.88
2023-03-07T01:47:39.171Z,92.88
2023-03-07T01:48:39.145Z,93.08
2023-03-07T01:49:39.194Z,92.25
2023-03-07T01:50:39.120Z,92.98
2023-03-07T01:51:39.108Z,92.88
2023-03-07T01:52:39.107Z,92.77
2023-03-07T01:53:39.086Z,92.82
2023-03-07T01:54:39.074Z,93.02
2023-03-07T01:55:39.093Z,93.54
2023-03-07T01:56:39.049Z,93.33
2023-03-07T01:57:39.072Z,93.33
2023-03-07T01:58:39.056Z,93.86
2023-03-07T01:59:39.020Z,93.82
2023-03-07T02:00:39.013Z,93.50
2023-03-07T02:01:39.157Z,93.65
2023-03-07T02:02:39.014Z,93.82
2023-03-07T02:03:38.976Z,94.02
2023-03-07T02:04:39.051Z,93.82
2023-03-07T02:05:38.954Z,93.92
2023-03-07T02:06:38.964Z,94.02
2023-03-07T02:07:38.930Z,93.86
2023-03-07T02:08:38.956Z,94.27
2023-03-07T02:09:38.967Z,94.76
2023-03-07T02:10:38.904Z,94.55
2023-03-07T02:11:38.920Z,94.55
2023-03-07T02:12:38.903Z,94.76
2023-03-07T02:13:38.874Z,94.76
2023-03-07T02:14:38.876Z,94.65
2023-03-07T02:15:38.917Z,94.44
2023-03-07T02:16:38.862Z,94.34
2023-03-07T02:17:38.824Z,95.38
2023-03-07T02:18:38.934Z,95.34
2023-03-07T02:19:38.830Z,95.03
2023-03-07T02:20:38.795Z,95.03
2023-03-07T02:21:38.846Z,95.23
2023-03-07T02:22:38.779Z,95.03
2023-03-07T02:23:38.782Z,95.13
2023-03-07T02:24:38.757Z,95.34
2023-03-07T02:25:38.752Z,95.03
2023-03-07T02:26:38.733Z,95.23
2023-03-07T02:27:38.716Z,95.19
2023-03-07T02:28:38.742Z,94.98
2023-03-07T02:29:38.701Z,95.19
2023-03-07T02:30:38.883Z,95.09
2023-03-07T02:31:38.690Z,95.19
2023-03-07T02:32:38.734Z,94.98
2023-03-07T02:33:38.692Z,94.46
2023-03-07T02:34:38.649Z,94.67
2023-03-07T02:35:38.654Z,95.29
2023-03-07T02:36:38.623Z,94.21
2023-03-07T02:37:38.617Z,94.21
2023-03-07T02:38:38.621Z,94.84
2023-03-07T02:39:38.594Z,94.21
2023-03-07T02:40:38.579Z,94.21
2023-03-07T02:41:38.570Z,94.63
2023-03-07T02:42:38.567Z,94.10
2023-03-07T02:43:38.572Z,93.90
2023-03-07T02:44:38.542Z,94.10
2023-03-07T02:45:38.587Z,94.21
2023-03-07T02:46:38.540Z,94.27
2023-03-07T02:47:38.509Z,93.79
2023-03-07T02:48:38.523Z,93.79
2023-03-07T02:49:38.492Z,93.48
2023-03-07T02:50:38.477Z,93.69
2023-03-07T02:51:38.469Z,93.48
2023-03-07T02:52:38.460Z,93.75
2023-03-07T02:53:38.498Z,93.65
2023-03-07T02:54:38.438Z,93.85
2023-03-07T02:55:38.436Z,94.06
2023-03-07T02:56:38.413Z,93.44
2023-03-07T02:57:38.412Z,93.33
2023-03-07T02:58:38.412Z,93.33
2023-03-07T02:59:38.392Z,93.12
2023-03-07T03:00:38.376Z,93.59
2023-03-07T03:01:38.384Z,93.65
2023-03-07T03:02:38.381Z,93.54
2023-03-07T03:03:38.413Z,93.54
2023-03-07T03:04:38.362Z,93.54
2023-03-07T03:05:38.324Z,93.50
2023-03-07T03:06:38.316Z,93.60
2023-03-07T03:07:38.311Z,93.18
2023-03-07T03:08:38.311Z,93.23
2023-03-07T03:09:38.277Z,92.91
2023-03-07T03:10:38.298Z,92.60
2023-03-07T03:11:38.266Z,92.50
2023-03-07T03:12:38.248Z,92.81
2023-03-07T03:13:39.152Z,92.60
2023-03-07T03:14:38.228Z,92.91
2023-03-07T03:15:38.232Z,93.02
2023-03-07T03:16:38.212Z,92.91
2023-03-07T03:17:38.191Z,92.97
2023-03-07T03:18:38.220Z,92.60
2023-03-07T03:19:38.176Z,92.60
2023-03-07T03:20:38.165Z,92.40
2023-03-07T03:21:38.219Z,92.50
2023-03-07T03:22:38.141Z,92.50
2023-03-07T03:23:38.171Z,92.40
2023-03-07T03:24:38.117Z,92.50
2023-03-07T03:25:40.093Z,92.66
2023-03-07T03:26:38.112Z,92.81
2023-03-07T03:27:38.098Z,92.77
2023-03-07T03:28:38.104Z,92.66
2023-03-07T03:29:38.070Z,92.60
2023-03-07T03:30:38.072Z,92.71
2023-03-07T03:31:38.100Z,92.50
2023-03-07T03:32:38.111Z,92.60
2023-03-07T03:33:38.058Z,92.71
2023-03-07T03:34:38.048Z,91.83
2023-03-07T03:35:38.036Z,92.25
2023-03-07T03:36:38.014Z,92.35
2023-03-07T03:37:37.979Z,92.35
2023-03-07T03:38:37.999Z,92.25
2023-03-07T03:39:37.973Z,91.72
2023-03-07T03:40:37.954Z,91.83
2023-03-07T03:41:37.946Z,92.03
2023-03-07T03:42:37.950Z,91.62
2023-03-07T03:43:38.033Z,91.78
2023-03-07T03:44:37.908Z,92.14
2023-03-07T03:45:37.899Z,92.14
2023-03-07T03:46:37.951Z,91.93
2023-03-07T03:47:37.883Z,91.93
2023-03-07T03:48:37.956Z,91.89
2023-03-07T03:49:37.853Z,91.62
2023-03-07T03:50:37.873Z,91.37
2023-03-07T03:51:37.836Z,90.85
2023-03-07T03:52:37.833Z,91.10
2023-03-07T03:53:37.838Z,91.27
2023-03-07T03:54:37.803Z,90.64
2023-03-07T03:55:37.789Z,90.95
2023-03-07T03:56:37.785Z,90.75
2023-03-07T03:57:37.782Z,90.33
2023-03-07T03:58:37.783Z,89.81
2023-03-07T03:59:37.752Z,90.33
2023-03-07T04:00:37.740Z,90.01
2023-03-07T04:01:37.806Z,90.33
2023-03-07T04:02:37.843Z,90.64
2023-03-07T04:03:37.714Z,90.68
2023-03-07T04:04:37.714Z,90.44
2023-03-07T04:05:37.687Z,90.22
2023-03-07T04:06:37.689Z,90.33
2023-03-07T04:07:37.687Z,90.01
2023-03-07T04:08:37.651Z,90.01
2023-03-07T04:09:37.644Z,90.44
2023-03-07T04:10:37.638Z,90.33
2023-03-07T04:11:37.675Z,89.50
2023-03-07T04:12:37.648Z,90.12
2023-03-07T04:13:37.607Z,90.33
2023-03-07T04:14:37.625Z,90.64
2023-03-07T04:15:37.576Z,90.33
2023-03-07T04:16:37.621Z,90.54
2023-03-07T04:17:37.551Z,90.54
2023-03-07T04:18:37.540Z,90.54
2023-03-07T04:19:37.546Z,90.44
2023-03-07T04:20:37.524Z,89.81
2023-03-07T04:21:37.514Z,89.98
2023-03-07T04:22:37.522Z,89.66
2023-03-07T04:23:37.485Z,90.19
2023-03-07T04:24:37.501Z,88.83
2023-03-07T04:25:37.508Z,89.14
2023-03-07T04:26:37.455Z,89.14
2023-03-07T04:27:37.452Z,89.00
2023-03-07T04:28:37.440Z,88.68
2023-03-07T04:29:37.466Z,88.79
2023-03-07T04:30:37.418Z,88.37
2023-03-07T04:31:37.448Z,88.68
2023-03-07T04:32:37.457Z,88.79
2023-03-07T04:33:37.385Z,88.89
2023-03-07T04:34:37.411Z,87.96
2023-03-07T04:35:37.379Z,88.17
2023-03-07T04:36:37.357Z,88.37
2023-03-07T04:37:37.350Z,88.79
2023-03-07T04:38:37.348Z,88.58
2023-03-07T04:39:37.347Z,88.58
2023-03-07T04:40:37.308Z,88.58
2023-03-07T04:41:37.292Z,88.58
2023-03-07T04:42:37.308Z,88.48
2023-03-07T04:43:37.294Z,88.37
2023-03-07T04:44:37.314Z,88.17
2023-03-07T04:45:37.420Z,88.43
2023-03-07T04:46:37.251Z,88.27
2023-03-07T04:47:37.252Z,88.23
2023-03-07T04:48:37.220Z,88.64
2023-03-07T04:49:37.235Z,88.85
2023-03-07T04:50:37.197Z,88.79
2023-03-07T04:51:37.193Z,89.00
2023-03-07T04:52:37.171Z,89.20
2023-03-07T04:53:37.187Z,90.14
2023-03-07T04:54:37.191Z,89.79
2023-03-07T04:55:37.151Z,90.35
2023-03-07T04:56:37.130Z,90.04
2023-03-07T04:57:37.126Z,90.14
2023-03-07T04:58:37.124Z,90.35
2023-03-07T04:59:37.110Z,90.56
2023-03-07T05:00:37.105Z,90.56
2023-03-07T05:01:37.154Z,90.56
2023-03-07T05:02:37.064Z,90.77
2023-03-07T05:03:37.094Z,91.28
2023-03-07T05:04:37.113Z,91.71
2023-03-07T05:05:37.796Z,92.12
2023-03-07T05:06:37.033Z,91.39
2023-03-07T05:07:37.020Z,91.91
2023-03-07T05:08:37.020Z,92.22
2023-03-07T05:09:36.994Z,92.37
2023-03-07T05:10:37.102Z,92.37
2023-03-07T05:11:36.976Z,92.27
2023-03-07T05:12:36.966Z,92.54
2023-03-07T05:13:37.003Z,92.47
2023-03-07T05:14:36.965Z,92.79
2023-03-07T05:15:36.955Z,92.68
2023-03-07T05:16:36.925Z,92.58
2023-03-07T05:17:36.914Z,92.79
2023-03-07T05:18:36.892Z,93.31
2023-03-07T05:19:36.913Z,93.20
2023-03-07T05:20:36.885Z,93.10
2023-03-07T05:21:36.883Z,93.20
2023-03-07T05:22:36.853Z,93.41
2023-03-07T05:23:36.842Z,93.41
2023-03-07T05:24:36.845Z,93.41
2023-03-07T05:25:36.823Z,92.89
2023-03-07T05:26:36.841Z,92.89
2023-03-07T05:27:36.806Z,93.41
2023-03-07T05:28:36.793Z,93.31
2023-03-07T05:29:36.810Z,93.73
2023-03-07T05:30:36.763Z,93.52
2023-03-07T05:31:36.824Z,93.52
2023-03-07T05:32:36.838Z,93.31
2023-03-07T05:33:36.750Z,93.31
2023-03-07T05:34:36.791Z,93.73
2023-03-07T05:35:36.785Z,93.20
2023-03-07T05:36:36.712Z,93.31
2023-03-07T05:37:36.695Z,93.62
2023-03-07T05:38:36.699Z,93.31
2023-03-07T05:39:36.711Z,93.20
2023-03-07T05:40:36.675Z,93.31
2023-03-07T05:41:36.652Z,93.62
2023-03-07T05:42:36.661Z,93.73
2023-03-07T05:43:36.643Z,93.27
2023-03-07T05:44:36.670Z,93.27
2023-03-07T05:45:36.609Z,93.31
2023-03-07T05:46:36.738Z,93.31
2023-03-07T05:47:36.598Z,92.99
2023-03-07T05:48:36.576Z,93.05
2023-03-07T05:49:36.578Z,93.37
2023-03-07T05:50:36.561Z,93.31
2023-03-07T05:51:36.547Z,93.27
2023-03-07T05:52:36.544Z,93.52
2023-03-07T05:53:36.530Z,93.27
2023-03-07T05:54:36.567Z,93.41
2023-03-07T05:55:36.500Z,93.20
2023-03-07T05:56:36.496Z,93.31
2023-03-07T05:57:36.479Z,93.41
2023-03-07T05:58:36.557Z,93.41
2023-03-07T05:59:36.487Z,93.10
2023-03-07T06:00:36.467Z,93.05
2023-03-07T06:01:36.443Z,93.41
2023-03-07T06:02:36.426Z,93.37
2023-03-07T06:03:36.534Z,93.37
2023-03-07T06:04:36.488Z,93.37
2023-03-07T06:05:36.398Z,93.27
2023-03-07T06:06:36.379Z,93.16
2023-03-07T06:07:36.438Z,93.37
2023-03-07T06:08:36.355Z,92.95
2023-03-07T06:09:36.371Z,93.37
2023-03-07T06:10:36.342Z,93.27
2023-03-07T06:11:36.327Z,93.37
2023-03-07T06:12:36.329Z,93.37
2023-03-07T06:13:36.304Z,93.37
2023-03-07T06:14:36.390Z,92.95
2023-03-07T06:15:36.285Z,93.37
2023-03-07T06:16:36.280Z,93.27
2023-03-07T06:17:36.268Z,92.91
2023-03-07T06:18:36.250Z,93.37
2023-03-07T06:19:36.315Z,93.27
2023-03-07T06:20:36.229Z,93.05
2023-03-07T06:21:36.220Z,92.91
2023-03-07T06:22:36.209Z,93.05
2023-03-07T06:23:36.237Z,93.16
2023-03-07T06:24:36.224Z,92.95
2023-03-07T06:25:36.187Z,92.80
2023-03-07T06:26:36.164Z,92.95
2023-03-07T06:27:36.179Z,92.91
2023-03-07T06:28:36.150Z,92.91
2023-03-07T06:29:36.160Z,93.01
2023-03-07T06:30:36.145Z,93.01
2023-03-07T06:31:36.170Z,92.80
2023-03-07T06:32:36.163Z,92.91
2023-03-07T06:33:36.096Z,93.01
2023-03-07T06:34:36.096Z,92.91
2023-03-07T06:35:36.108Z,92.80
2023-03-07T06:36:36.070Z,93.01
2023-03-07T06:37:36.057Z,92.70
2023-03-07T06:38:36.036Z,92.49
2023-03-07T06:39:36.056Z,92.60
2023-03-07T06:40:36.030Z,91.97
2023-03-07T06:41:36.021Z,92.29
2023-03-07T06:42:36.026Z,92.49
2023-03-07T06:43:35.986Z,92.60
2023-03-07T06:44:35.988Z,92.70
2023-03-07T06:45:35.975Z,92.29
2023-03-07T06:46:35.999Z,92.29
2023-03-07T06:47:35.961Z,92.49
2023-03-07T06:48:35.957Z,92.03
2023-03-07T06:49:35.940Z,92.08
2023-03-07T06:50:35.981Z,92.24
2023-03-07T06:51:37.844Z,92.14
2023-03-07T06:52:35.900Z,92.24
2023-03-07T06:53:35.902Z,92.14
2023-03-07T06:54:35.893Z,92.45
2023-03-07T06:55:35.865Z,92.14
2023-03-07T06:56:35.894Z,91.62
2023-03-07T06:57:35.841Z,91.93
2023-03-07T06:58:35.849Z,91.93
2023-03-07T06:59:35.826Z,92.03
2023-03-07T07:00:35.819Z,91.41
2023-03-07T07:01:35.861Z,91.62
2023-03-07T07:02:35.998Z,91.72
2023-03-07T07:03:35.848Z,91.62
2023-03-07T07:04:35.765Z,91.58
2023-03-07T07:05:35.798Z,91.62
2023-03-07T07:06:35.746Z,91.68
2023-03-07T07:07:35.746Z,91.78
2023-03-07T07:08:35.738Z,91.78
2023-03-07T07:09:35.717Z,91.68
2023-03-07T07:10:35.711Z,91.58
2023-03-07T07:11:35.689Z,91.68
2023-03-07T07:12:35.699Z,91.37
2023-03-07T07:13:35.696Z,91.16
2023-03-07T07:14:35.657Z,91.06
2023-03-07T07:15:35.698Z,90.85
2023-03-07T07:16:35.679Z,90.64
2023-03-07T07:17:35.688Z,90.95
2023-03-07T07:18:35.637Z,90.85
2023-03-07T07:19:35.618Z,90.85
2023-03-07T07:20:35.612Z,90.64
2023-03-07T07:21:35.617Z,90.44
2023-03-07T07:22:35.624Z,90.12
2023-03-07T07:23:35.565Z,90.64
2023-03-07T07:24:35.548Z,90.12
2023-03-07T07:25:35.557Z,90.12
2023-03-07T07:26:35.526Z,89.98
2023-03-07T07:27:35.529Z,89.98
2023-03-07T07:28:35.505Z,89.67
2023-03-07T07:29:35.496Z,89.46
2023-03-07T07:30:35.512Z,89.77
2023-03-07T07:31:35.629Z,89.77
2023-03-07T07:32:35.914Z,89.98
2023-03-07T07:33:35.472Z,89.87
2023-03-07T07:34:35.469Z,90.08
2023-03-07T07:35:35.503Z,89.98
2023-03-07T07:36:35.426Z,89.87
2023-03-07T07:37:35.414Z,90.19
2023-03-07T07:38:35.400Z,90.08
2023-03-07T07:39:35.393Z,90.29
2023-03-07T07:40:35.412Z,89.31
2023-03-07T07:41:35.384Z,89.83
2023-03-07T07:42:35.359Z,89.62
2023-03-07T07:43:35.347Z,89.83
2023-03-07T07:44:35.375Z,89.11
2023-03-07T07:45:35.414Z,88.59
2023-03-07T07:46:35.324Z,89.00
2023-03-07T07:47:35.311Z,88.69
2023-03-07T07:48:35.309Z,89.00
2023-03-07T07:49:35.283Z,88.75
2023-03-07T07:50:35.333Z,88.69
2023-03-07T07:51:35.301Z,88.44
2023-03-07T07:52:35.259Z,87.92
2023-03-07T07:53:35.258Z,87.71
2023-03-07T07:54:35.233Z,88.34
2023-03-07T07:55:35.239Z,88.44
2023-03-07T07:56:35.213Z,88.34
2023-03-07T07:57:35.211Z,88.44
2023-03-07T07:58:35.193Z,88.44
2023-03-07T07:59:35.177Z,88.17
2023-03-07T08:00:35.186Z,88.38
2023-03-07T08:01:35.158Z,88.48
2023-03-07T08:02:35.181Z,88.28
2023-03-07T08:03:35.173Z,88.23
2023-03-07T08:04:35.130Z,87.92
2023-03-07T08:05:35.144Z,88.54
2023-03-07T08:06:35.128Z,88.34
2023-03-07T08:07:35.107Z,88.44
2023-03-07T08:08:35.095Z,88.13
2023-03-07T08:09:35.092Z,88.65
2023-03-07T08:10:35.082Z,88.13
2023-03-07T08:11:35.049Z,88.23
2023-03-07T08:12:35.054Z,88.13
2023-03-07T08:13:35.026Z,88.23
2023-03-07T08:14:35.040Z,88.23
2023-03-07T08:15:35.111Z,88.34
2023-03-07T08:16:35.002Z,88.13
2023-03-07T08:17:34.985Z,88.34
2023-03-07T08:18:34.972Z,88.34
2023-03-07T08:19:34.962Z,88.34
2023-03-07T08:20:34.973Z,88.23
2023-03-07T08:21:34.948Z,88.34
2023-03-07T08:22:34.959Z,88.23
2023-03-07T08:23:34.916Z,88.09
2023-03-07T08:24:40.627Z,88.20
2023-03-07T08:25:35.919Z,88.44
2023-03-07T08:26:34.893Z,88.34
2023-03-07T08:27:34.894Z,88.09
2023-03-07T08:28:34.871Z,88.09
2023-03-07T08:29:34.860Z,88.30
2023-03-07T08:30:34.860Z,88.20
2023-03-07T08:31:34.884Z,87.99
2023-03-07T08:32:34.892Z,88.71
2023-03-07T08:33:34.811Z,88.82
2023-03-07T08:34:34.802Z,88.09
2023-03-07T08:35:34.837Z,88.40
2023-03-07T08:36:34.793Z,88.40
2023-03-07T08:37:34.769Z,88.26
2023-03-07T08:38:34.886Z,88.36
2023-03-07T08:39:34.762Z,88.46
2023-03-07T08:40:34.775Z,87.74
2023-03-07T08:41:34.735Z,87.95
2023-03-07T08:42:34.771Z,88.15
2023-03-07T08:43:34.711Z,87.49
2023-03-07T08:44:34.736Z,87.07
2023-03-07T08:45:34.700Z,86.87
2023-03-07T08:46:34.686Z,86.66
2023-03-07T08:47:34.658Z,87.18
2023-03-07T08:48:34.647Z,87.07
2023-03-07T08:49:34.644Z,86.66
2023-03-07T08:50:34.644Z,87.18
2023-03-07T08:51:34.617Z,86.52
2023-03-07T08:52:34.601Z,87.14
2023-03-07T08:53:34.598Z,86.52
2023-03-07T08:54:34.609Z,86.52
2023-03-07T08:55:34.578Z,86.83
2023-03-07T08:56:34.573Z,86.41
2023-03-07T08:57:34.546Z,86.17
2023-03-07T08:58:34.537Z,85.96
2023-03-07T08:59:34.529Z,85.13
2023-03-07T09:00:34.524Z,85.34
2023-03-07T09:01:34.540Z,85.44
2023-03-07T09:02:34.493Z,85.03
2023-03-07T09:03:34.477Z,85.03
2023-03-07T09:04:34.532Z,85.40
2023-03-07T09:05:34.478Z,84.88
2023-03-07T09:06:34.450Z,84.99
2023-03-07T09:07:34.444Z,85.09
2023-03-07T09:08:34.426Z,85.09
2023-03-07T09:09:34.412Z,84.99
2023-03-07T09:10:34.465Z,84.99
2023-03-07T09:11:34.398Z,84.37
2023-03-07T09:12:34.388Z,84.27
2023-03-07T09:13:43.041Z,83.75
2023-03-07T09:14:35.362Z,84.51
2023-03-07T09:15:34.402Z,84.47
2023-03-07T09:16:34.411Z,84.41
2023-03-07T09:17:34.326Z,84.82
2023-03-07T09:18:34.344Z,84.68
2023-03-07T09:19:34.306Z,84.47
2023-03-07T09:20:34.347Z,84.47
2023-03-07T09:21:34.294Z,84.16
2023-03-07T09:22:34.313Z,84.47
2023-03-07T09:23:34.270Z,83.95
2023-03-07T09:24:34.260Z,83.75
2023-03-07T09:25:34.278Z,84.64
2023-03-07T09:26:34.271Z,83.95
2023-03-07T09:27:34.222Z,84.33
2023-03-07T09:28:34.217Z,84.33
2023-03-07T09:29:34.199Z,84.43
2023-03-07T09:30:34.278Z,84.01
2023-03-07T09:31:34.238Z,83.81
2023-03-07T09:32:34.198Z,83.91
2023-03-07T09:33:34.161Z,83.77
2023-03-07T09:34:34.152Z,83.46
2023-03-07T09:35:34.200Z,83.25
2023-03-07T09:36:34.133Z,83.25
2023-03-07T09:37:34.115Z,83.11
2023-03-07T09:38:34.115Z,82.87
2023-03-07T09:39:34.096Z,82.76
2023-03-07T09:40:34.103Z,82.52
2023-03-07T09:41:34.139Z,82.00
2023-03-07T09:42:34.080Z,81.49
2023-03-07T09:43:34.056Z,81.18
2023-03-07T09:44:34.041Z,81.07
2023-03-07T09:45:34.106Z,81.18
2023-03-07T09:46:34.028Z,81.18
2023-03-07T09:47:34.009Z,80.35
2023-03-07T09:48:34.010Z,80.04
2023-03-07T09:49:33.992Z,81.28
2023-03-07T09:50:34.018Z,81.07
2023-03-07T09:51:33.966Z,81.38
2023-03-07T09:52:33.953Z,81.18
2023-03-07T09:53:33.954Z,81.32
2023-03-07T09:54:41.638Z,81.01
2023-03-07T09:55:34.271Z,81.52
2023-03-07T09:56:33.910Z,82.10
2023-03-07T09:57:33.893Z,81.28
2023-03-07T09:58:33.911Z,81.07
2023-03-07T09:59:33.877Z,80.25
2023-03-07T10:00:33.887Z,80.49
2023-03-07T10:01:33.850Z,81.32
2023-03-07T10:02:33.847Z,81.32
2023-03-07T10:03:33.888Z,81.11
2023-03-07T10:04:33.851Z,81.25
2023-03-07T10:05:33.826Z,81.52
2023-03-07T10:06:33.800Z,81.63
2023-03-07T10:07:33.787Z,81.84
2023-03-07T10:08:33.792Z,81.77
2023-03-07T10:09:33.763Z,81.77
2023-03-07T10:10:33.769Z,81.84
2023-03-07T10:11:33.780Z,81.67
2023-03-07T10:12:33.734Z,81.32
2023-03-07T10:13:33.720Z,81.35
2023-03-07T10:14:33.766Z,81.52
2023-03-07T10:15:33.760Z,81.67
2023-03-07T10:16:33.757Z,82.15
2023-03-07T10:17:33.674Z,82.45
2023-03-07T10:18:33.666Z,82.25
2023-03-07T10:19:33.660Z,81.42
2023-03-07T10:20:33.648Z,81.32
2023-03-07T10:21:33.663Z,81.25
2023-03-07T10:22:33.633Z,81.73
2023-03-07T10:23:33.626Z,81.84
2023-03-07T10:24:33.608Z,82.39
2023-03-07T10:25:33.603Z,82.45
2023-03-07T10:26:33.582Z,82.25
2023-03-07T10:27:33.569Z,82.45
2023-03-07T10:28:33.555Z,82.87
2023-03-07T10:29:33.554Z,82.45
2023-03-07T10:30:33.573Z,82.15
2023-03-07T10:31:33.527Z,82.45
2023-03-07T10:32:33.566Z,82.76
2023-03-07T10:33:33.498Z,82.35
2023-03-07T10:34:33.485Z,82.45
2023-03-07T10:35:33.513Z,82.87
2023-03-07T10:36:33.465Z,83.07
2023-03-07T10:37:33.451Z,83.32
2023-03-07T10:38:33.452Z,83.32
2023-03-07T10:39:33.429Z,83.11
2023-03-07T10:40:33.505Z,83.22
2023-03-07T10:41:33.406Z,82.70
2023-03-07T10:42:33.400Z,83.01
2023-03-07T10:43:33.388Z,82.29
2023-03-07T10:44:33.390Z,83.01
2023-03-07T10:45:33.365Z,83.32
2023-03-07T10:46:33.466Z,83.53
2023-03-07T10:47:33.347Z,83.53
2023-03-07T10:48:33.332Z,83.94
2023-03-07T10:49:33.346Z,83.53
2023-03-07T10:50:33.309Z,83.94
2023-03-07T10:51:33.308Z,84.05
2023-03-07T10:52:33.286Z,84.45
2023-03-07T10:53:33.276Z,84.36
2023-03-07T10:54:33.266Z,83.53
2023-03-07T10:55:33.256Z,84.05
2023-03-07T10:56:33.256Z,84.45
2023-03-07T10:57:33.232Z,84.45
2023-03-07T10:58:33.222Z,83.94
2023-03-07T10:59:33.211Z,84.66
2023-03-07T11:00:33.197Z,85.08
2023-03-07T11:01:33.350Z,85.08
2023-03-07T11:02:33.198Z,84.97
2023-03-07T11:03:46.121Z,83.94
2023-03-07T11:04:34.243Z,83.73
2023-03-07T11:05:33.144Z,83.67
2023-03-07T11:06:33.157Z,83.53
2023-03-07T11:07:33.123Z,83.56
2023-03-07T11:08:33.114Z,83.36
2023-03-07T11:09:33.110Z,83.25
2023-03-07T11:10:33.104Z,83.56
2023-03-07T11:11:33.092Z,82.53
2023-03-07T11:12:33.073Z,83.15
2023-03-07T11:13:33.059Z,83.56
2023-03-07T11:14:33.045Z,82.84
2023-03-07T11:15:33.065Z,82.12
2023-03-07T11:16:33.222Z,82.01
2023-03-07T11:17:33.015Z,81.29
2023-03-07T11:18:33.042Z,81.29
2023-03-07T11:19:32.997Z,81.39
2023-03-07T11:20:32.981Z,81.29
2023-03-07T11:21:33.042Z,81.70
2023-03-07T11:22:32.957Z,81.81
2023-03-07T11:23:32.968Z,81.81
2023-03-07T11:24:32.946Z,81.81
2023-03-07T11:25:32.924Z,81.29
2023-03-07T11:26:33.051Z,81.49
2023-03-07T11:27:32.904Z,81.39
2023-03-07T11:28:32.898Z,80.36
2023-03-07T11:29:32.882Z,80.40
2023-03-07T11:30:32.873Z,80.26
2023-03-07T11:31:32.873Z,79.94
2023-03-07T11:32:32.891Z,79.33
2023-03-07T11:33:32.838Z,79.26
2023-03-07T11:34:32.857Z,79.98
2023-03-07T11:35:32.844Z,79.77
2023-03-07T11:36:32.824Z,79.36
2023-03-07T11:37:32.795Z,79.47
2023-03-07T11:38:32.785Z,79.77
2023-03-07T11:39:32.774Z,79.77
2023-03-07T11:40:32.783Z,79.47
2023-03-07T11:41:32.765Z,79.43
2023-03-07T11:42:32.795Z,79.36
2023-03-07T11:43:32.732Z,79.63
2023-03-07T11:44:32.729Z,79.02
2023-03-07T11:45:32.713Z,79.33
2023-03-07T11:46:32.875Z,79.22
2023-03-07T11:47:32.690Z,78.91
2023-03-07T11:48:32.678Z,78.91
2023-03-07T11:49:32.667Z,78.81
2023-03-07T11:50:32.679Z,77.77
2023-03-07T11:51:32.668Z,78.08
2023-03-07T11:52:32.678Z,79.12
2023-03-07T11:53:32.694Z,79.63
2023-03-07T11:54:32.614Z,79.12
2023-03-07T11:55:34.916Z,79.33
2023-03-07T11:56:32.614Z,79.12
2023-03-07T11:57:32.588Z,79.12
2023-03-07T11:58:32.575Z,79.63
2023-03-07T11:59:32.575Z,79.43
2023-03-07T12:00:32.608Z,79.12
2023-03-07T12:01:32.568Z,79.33
2023-03-07T12:02:32.551Z,79.19
2023-03-07T12:03:32.523Z,79.02
2023-03-07T12:04:32.516Z,79.19
2023-03-07T12:05:32.518Z,77.98
2023-03-07T12:06:32.547Z,78.19
2023-03-07T12:07:32.477Z,79.02
2023-03-07T12:08:32.472Z,79.22
2023-03-07T12:09:32.458Z,79.12
2023-03-07T12:10:32.447Z,79.22
2023-03-07T12:11:32.461Z,79.22
2023-03-07T12:12:32.430Z,79.22
2023-03-07T12:13:32.415Z,79.53
2023-03-07T12:14:32.438Z,79.33
2023-03-07T12:15:32.396Z,79.63
2023-03-07T12:16:32.519Z,79.63
2023-03-07T12:17:32.388Z,79.43
2023-03-07T12:18:32.367Z,80.15
2023-03-07T12:19:32.811Z,80.05
2023-03-07T12:20:32.340Z,80.46
2023-03-07T12:21:32.355Z,80.26
2023-03-07T12:22:32.346Z,80.26
2023-03-07T12:23:32.310Z,80.63
2023-03-07T12:24:32.296Z,80.32
2023-03-07T12:25:32.308Z,80.22
2023-03-07T12:26:32.288Z,80.22
2023-03-07T12:27:32.267Z,80.05
2023-03-07T12:28:32.253Z,80.22
2023-03-07T12:29:32.266Z,80.32
2023-03-07T12:30:32.235Z,80.36
2023-03-07T12:31:32.449Z,80.15
2023-03-07T12:32:32.514Z,80.15
2023-03-07T12:33:32.304Z,80.40
2023-03-07T12:34:32.209Z,81.09
2023-03-07T12:35:32.199Z,81.33
2023-03-07T12:36:32.230Z,81.33
2023-03-07T12:37:32.165Z,81.33
2023-03-07T12:38:32.234Z,81.12
2023-03-07T12:39:32.151Z,81.33
2023-03-07T12:40:32.130Z,81.43
2023-03-07T12:41:32.162Z,81.74
2023-03-07T12:42:32.110Z,81.78
2023-03-07T12:43:32.100Z,82.19
2023-03-07T12:44:32.090Z,82.50
2023-03-07T12:45:32.232Z,82.50
2023-03-07T12:46:32.157Z,82.40
2023-03-07T12:47:32.069Z,82.81
2023-03-07T12:48:32.083Z,83.12
2023-03-07T12:49:37.982Z,83.64
2023-03-07T12:50:33.039Z,83.44
2023-03-07T12:51:32.025Z,83.95
2023-03-07T12:52:32.004Z,83.54